Time;durP1;ratioP1;P1;durP2;ratioP2;P2;SDS_P1;SDS_P2;PMS_P1;PMS_P2;Temp;Humidity;BMP_temperature;BMP_pressure;BME280_temperature;BME280_humidity;BME280_pressure;Samples;Min_cycle;Max_cycle;Signal;HPM_P1;HPM_P2
2023/02/12 00:00:32;;;;;;;2.70;1.50;;;2.20;99.90;;;;;;4957700;28;20309;-65
2023/02/12 00:02:59;;;;;;;2.67;1.20;;;2.30;99.90;;;;;;4957841;28;20201;-68
2023/02/12 00:05:26;;;;;;;3.37;1.37;;;2.20;99.90;;;;;;4974350;28;20214;-67
2023/02/12 00:07:53;;;;;;;2.33;1.43;;;2.20;99.90;;;;;;4974606;28;20230;-65
2023/02/12 00:10:20;;;;;;;2.83;1.40;;;2.10;99.90;;;;;;4957735;28;20194;-64
2023/02/12 00:12:47;;;;;;;2.13;1.40;;;2.00;99.90;;;;;;4957795;28;20202;-68
2023/02/12 00:15:14;;;;;;;3.73;1.60;;;2.00;99.90;;;;;;4957240;28;20218;-68
2023/02/12 00:17:41;;;;;;;4.63;1.60;;;1.90;99.90;;;;;;4957257;28;20193;-68
2023/02/12 00:20:08;;;;;;;2.27;1.40;;;1.90;99.90;;;;;;4957226;28;20197;-67
2023/02/12 00:22:35;;;;;;;2.40;1.53;;;1.90;99.90;;;;;;4957313;28;20194;-64
2023/02/12 00:25:02;;;;;;;2.97;1.60;;;1.90;99.90;;;;;;4957157;28;20229;-65
2023/02/12 00:27:32;;;;;;;3.07;1.90;;;1.90;99.90;;;;;;4957194;28;20193;-64
2023/02/12 00:29:59;;;;;;;2.50;1.63;;;1.90;99.90;;;;;;4956905;28;20209;-64
2023/02/12 00:32:26;;;;;;;1.90;1.50;;;1.90;99.90;;;;;;4974219;28;20652;-66
2023/02/12 00:35:16;;;;;;;5.47;1.70;;;1.90;99.90;;;;;;4956980;28;20197;-66
2023/02/12 00:37:43;;;;;;;3.57;1.60;;;1.90;99.90;;;;;;4956570;28;20636;-65
2023/02/12 00:40:10;;;;;;;5.70;1.70;;;1.80;99.90;;;;;;4956903;28;20515;-65
2023/02/12 00:42:38;;;;;;;4.43;1.70;;;1.80;99.90;;;;;;4956959;28;20204;-69
2023/02/12 00:45:13;;;;;;;3.67;1.53;;;1.80;99.90;;;;;;4927551;28;20231;-65
2023/02/12 00:47:39;;;;;;;3.27;1.50;;;1.80;99.90;;;;;;4955919;28;20620;-66
2023/02/12 00:50:07;;;;;;;3.97;1.57;;;1.80;99.90;;;;;;4973882;28;20533;-66
2023/02/12 00:52:34;;;;;;;2.20;1.47;;;1.80;99.90;;;;;;4956423;28;20198;-66
2023/02/12 00:55:01;;;;;;;3.10;1.50;;;1.80;99.90;;;;;;4956477;28;20206;-67
2023/02/12 00:57:28;;;;;;;2.10;1.30;;;1.80;99.90;;;;;;4956621;28;20193;-67
2023/02/12 00:59:55;;;;;;;3.17;1.60;;;1.90;99.90;;;;;;4956727;28;20197;-67
2023/02/12 01:02:22;;;;;;;2.17;1.47;;;1.70;99.90;;;;;;4956189;28;20225;-66
2023/02/12 01:04:49;;;;;;;5.43;1.50;;;1.80;99.90;;;;;;4945719;29;20218;-65
2023/02/12 01:07:16;;;;;;;1.83;1.50;;;1.80;99.90;;;;;;4954014;28;20229;-69
2023/02/12 01:09:42;;;;;;;4.53;1.80;;;1.80;99.90;;;;;;4937391;29;20206;-67
2023/02/12 01:12:09;;;;;;;3.57;1.30;;;1.70;99.90;;;;;;4937514;29;20667;-67
2023/02/12 01:14:48;;;;;;;1.57;1.30;;;1.60;99.90;;;;;;4963542;28;20200;-68
2023/02/12 01:17:33;;;;;;;3.47;1.20;;;1.70;99.90;;;;;;4928272;28;20229;-70
2023/02/12 01:20:16;;;;;;;2.73;1.30;;;1.60;99.90;;;;;;4957948;28;20201;-70
2023/02/12 01:22:52;;;;;;;1.63;1.10;;;1.60;99.90;;;;;;4940831;28;20249;-67
2023/02/12 01:25:20;;;;;;;1.73;0.97;;;1.60;99.90;;;;;;4955851;28;20221;-70
2023/02/12 01:27:47;;;;;;;2.47;1.30;;;1.60;99.90;;;;;;4955983;28;20295;-69
2023/02/12 01:30:15;;;;;;;2.17;1.23;;;1.50;99.90;;;;;;4956142;28;20213;-67
2023/02/12 01:32:42;;;;;;;1.90;1.20;;;1.60;99.90;;;;;;4956118;28;20202;-68
2023/02/12 01:35:11;;;;;;;2.00;1.30;;;1.50;99.90;;;;;;4956153;28;20292;-67
2023/02/12 01:37:39;;;;;;;3.50;1.30;;;1.40;99.90;;;;;;4956360;28;20565;-70
2023/02/12 01:40:13;;;;;;;2.47;1.20;;;1.40;99.90;;;;;;4956801;28;20672;-69
2023/02/12 01:43:03;;;;;;;2.40;1.50;;;1.40;99.90;;;;;;4941250;28;20201;-68
2023/02/12 01:48:19;;;;;;;1.90;1.10;;;1.40;99.90;;;;;;5159070;23;20630;-71
2023/02/12 01:50:52;;;;;;;3.17;1.10;;;1.50;99.90;;;;;;4973978;28;20291;-68
2023/02/12 01:53:27;;;;;;;2.23;1.10;;;1.70;99.90;;;;;;4939925;28;20222;-66
2023/02/12 01:56:01;;;;;;;1.10;1.00;;;1.70;99.90;;;;;;4952337;29;20209;-67
2023/02/12 01:58:47;;;;;;;3.83;0.90;;;1.70;99.90;;;;;;4986751;28;20264;-69
2023/02/12 02:01:29;;;;;;;2.07;1.40;;;1.70;99.90;;;;;;4955759;29;20200;-69
2023/02/12 02:04:18;;;;;;;1.63;1.10;;;1.70;99.90;;;;;;4914343;29;20206;-65
2023/02/12 02:07:33;;;;;;;1.33;1.20;;;1.80;99.90;;;;;;4937234;29;20651;-70
2023/02/12 02:10:15;;;;;;;1.87;1.10;;;1.80;99.90;;;;;;4925435;29;20288;-70
2023/02/12 02:15:45;;;;;;;1.67;1.00;;;1.70;99.90;;;;;;4937951;29;20203;-69
2023/02/12 02:18:53;;;;;;;1.77;1.00;;;1.80;99.90;;;;;;4908371;29;20685;-69
2023/02/12 02:21:46;;;;;;;1.83;1.10;;;1.80;99.90;;;;;;4921066;29;20603;-68
2023/02/12 02:24:30;;;;;;;1.43;1.00;;;1.80;99.90;;;;;;4936696;29;20626;-69
2023/02/12 02:27:13;;;;;;;1.97;1.20;;;1.60;99.90;;;;;;4938306;29;20687;-70
2023/02/12 02:29:58;;;;;;;2.97;1.23;;;1.60;99.90;;;;;;4936840;29;20203;-66
2023/02/12 02:32:37;;;;;;;1.67;1.10;;;1.60;99.90;;;;;;4905590;29;20201;-69
2023/02/12 02:35:12;;;;;;;1.33;0.93;;;1.50;99.90;;;;;;4920994;29;20195;-68
2023/02/12 02:37:47;;;;;;;1.63;1.17;;;1.50;99.90;;;;;;4920984;29;20640;-71
2023/02/12 02:40:18;;;;;;;1.70;1.10;;;1.60;99.90;;;;;;4952353;28;20206;-69
2023/02/12 02:42:54;;;;;;;1.20;1.10;;;1.60;99.90;;;;;;4937995;29;20584;-69
2023/02/12 02:45:30;;;;;;;1.23;0.97;;;1.70;99.90;;;;;;4952329;29;20225;-69
2023/02/12 02:48:09;;;;;;;1.13;1.00;;;1.70;99.90;;;;;;4920654;29;20238;-70
2023/02/12 02:50:40;;;;;;;1.93;1.00;;;1.60;99.90;;;;;;4920654;29;20202;-68
2023/02/12 02:53:12;;;;;;;1.40;1.10;;;1.70;99.90;;;;;;4952408;29;20207;-69
2023/02/12 02:55:45;;;;;;;1.37;1.10;;;1.60;99.90;;;;;;4920518;29;20652;-69
2023/02/12 02:58:21;;;;;;;1.57;1.10;;;1.60;99.90;;;;;;4936439;29;20202;-70
2023/02/12 03:00:59;;;;;;;1.50;0.93;;;1.60;99.90;;;;;;4952394;29;20212;-69
2023/02/12 03:03:36;;;;;;;4.20;1.20;;;1.70;99.90;;;;;;4935809;29;20206;-68
2023/02/12 03:06:17;;;;;;;2.37;1.10;;;1.60;99.90;;;;;;4936242;29;20213;-69
2023/02/12 03:08:51;;;;;;;1.07;0.97;;;1.60;99.90;;;;;;4920158;29;20218;-68
2023/02/12 03:11:27;;;;;;;1.63;1.20;;;1.50;99.90;;;;;;4919669;29;20190;-69
2023/02/12 03:14:15;;;;;;;2.30;1.10;;;1.50;99.90;;;;;;4932400;29;20202;-68
2023/02/12 03:17:15;;;;;;;1.17;0.90;;;1.60;99.90;;;;;;4954845;29;20194;-68
2023/02/12 03:19:49;;;;;;;1.57;1.10;;;1.60;99.90;;;;;;4939129;29;20262;-69
2023/02/12 03:22:21;;;;;;;2.67;1.10;;;1.60;99.90;;;;;;4956159;29;20205;-69
2023/02/12 03:24:50;;;;;;;1.47;1.00;;;1.70;99.90;;;;;;4930254;29;20266;-67
2023/02/12 03:27:33;;;;;;;1.60;1.10;;;1.60;99.90;;;;;;4919737;29;20623;-68
2023/02/12 03:30:02;;;;;;;1.67;0.90;;;1.70;99.90;;;;;;4919934;29;20198;-68
2023/02/12 03:32:56;;;;;;;1.77;0.90;;;1.70;99.90;;;;;;4937014;29;20202;-68
2023/02/12 03:35:35;;;;;;;1.10;1.00;;;1.70;99.90;;;;;;4951458;29;20191;-68
2023/02/12 03:38:12;;;;;;;1.77;1.07;;;1.70;99.90;;;;;;4935789;29;20198;-71
2023/02/12 03:40:52;;;;;;;1.23;1.00;;;1.60;99.90;;;;;;4956443;28;20216;-68
2023/02/12 03:43:27;;;;;;;1.63;1.00;;;1.50;99.90;;;;;;4938820;29;20214;-68
2023/02/12 03:46:06;;;;;;;2.87;1.20;;;1.40;99.90;;;;;;4970471;28;20232;-68
2023/02/12 03:48:40;;;;;;;2.20;0.97;;;1.40;99.90;;;;;;4970491;28;20354;-67
2023/02/12 03:51:20;;;;;;;1.10;0.90;;;1.30;99.90;;;;;;4938785;29;20208;-68
2023/02/12 03:53:48;;;;;;;1.57;0.90;;;1.40;99.90;;;;;;4938423;29;20202;-68
2023/02/12 03:56:21;;;;;;;1.50;1.03;;;1.40;99.90;;;;;;4938724;29;20260;-68
2023/02/12 03:58:48;;;;;;;1.93;1.10;;;1.50;99.90;;;;;;4938401;29;20202;-67
2023/02/12 04:01:16;;;;;;;1.70;1.00;;;1.50;99.90;;;;;;4938514;29;20194;-67
2023/02/12 04:03:43;;;;;;;1.10;0.90;;;1.50;99.90;;;;;;4970476;28;20194;-68
2023/02/12 04:06:23;;;;;;;2.40;1.07;;;1.50;99.90;;;;;;4954164;29;20222;-70
2023/02/12 04:08:50;;;;;;;2.27;1.17;;;1.50;99.90;;;;;;4938221;29;20686;-68
2023/02/12 04:11:29;;;;;;;1.60;1.00;;;1.70;99.90;;;;;;4955329;29;20743;-68
2023/02/12 04:14:11;;;;;;;1.90;0.90;;;1.70;99.90;;;;;;4955434;29;20202;-67
2023/02/12 04:16:47;;;;;;;1.10;1.00;;;1.60;99.90;;;;;;4938296;29;20246;-69
2023/02/12 04:19:21;;;;;;;1.03;0.93;;;1.60;99.90;;;;;;4938261;29;20217;-68
2023/02/12 04:22:11;;;;;;;1.70;1.10;;;1.50;99.90;;;;;;4970095;28;20193;-65
2023/02/12 04:24:49;;;;;;;1.20;1.00;;;1.50;99.90;;;;;;4953706;29;20194;-68
2023/02/12 04:27:51;;;;;;;1.93;1.33;;;1.40;99.90;;;;;;4970014;28;20651;-65
2023/02/12 04:30:28;;;;;;;2.20;1.13;;;1.40;99.90;;;;;;4953819;29;20205;-68
2023/02/12 04:33:00;;;;;;;2.60;1.00;;;1.40;99.90;;;;;;4970118;28;20222;-68
2023/02/12 04:35:45;;;;;;;2.17;1.20;;;1.50;99.90;;;;;;4969734;28;20198;-66
2023/02/12 04:38:24;;;;;;;2.03;1.40;;;1.50;99.90;;;;;;4955199;29;20209;-68
2023/02/12 04:40:51;;;;;;;1.63;1.30;;;1.40;99.90;;;;;;4953526;29;20208;-66
2023/02/12 04:43:35;;;;;;;3.13;1.60;;;1.40;99.90;;;;;;4938006;29;20198;-66
2023/02/12 04:46:04;;;;;;;1.30;1.20;;;1.30;99.90;;;;;;4937450;29;20235;-69
2023/02/12 04:48:33;;;;;;;2.70;1.30;;;1.40;99.90;;;;;;4953460;29;20324;-67
2023/02/12 04:51:00;;;;;;;2.30;1.43;;;1.40;99.90;;;;;;4969523;28;20202;-70
2023/02/12 04:53:27;;;;;;;2.03;1.20;;;1.40;99.90;;;;;;4969150;28;20245;-64
2023/02/12 04:55:54;;;;;;;1.23;1.13;;;1.50;99.90;;;;;;4969434;28;20205;-65
2023/02/12 04:58:21;;;;;;;1.57;1.37;;;1.40;99.90;;;;;;4954715;29;20640;-68
2023/02/12 05:00:48;;;;;;;2.33;1.40;;;1.40;99.90;;;;;;4937619;29;20276;-65
2023/02/12 05:03:15;;;;;;;1.80;1.53;;;1.30;99.90;;;;;;4937169;29;20205;-66
2023/02/12 05:05:42;;;;;;;2.50;1.50;;;1.20;99.90;;;;;;4968988;28;20268;-67
2023/02/12 05:08:09;;;;;;;3.63;1.60;;;1.20;99.90;;;;;;4953986;29;20229;-68
2023/02/12 05:10:35;;;;;;;1.70;1.40;;;1.30;99.90;;;;;;4954473;29;20242;-68
2023/02/12 05:13:02;;;;;;;2.30;1.50;;;1.20;99.90;;;;;;4969363;28;20644;-67
2023/02/12 05:15:29;;;;;;;3.37;1.40;;;1.20;99.90;;;;;;4954504;29;20210;-68
2023/02/12 05:17:56;;;;;;;3.00;1.57;;;1.30;99.90;;;;;;4954348;29;20199;-70
2023/02/12 05:20:23;;;;;;;2.00;1.40;;;1.20;99.90;;;;;;4954349;29;20204;-70
2023/02/12 05:22:53;;;;;;;2.90;1.60;;;1.30;99.90;;;;;;4969109;28;20551;-69
2023/02/12 05:25:20;;;;;;;3.37;1.53;;;1.40;99.90;;;;;;4952862;29;20312;-68
2023/02/12 05:27:47;;;;;;;1.43;1.30;;;1.40;99.90;;;;;;4954278;29;20206;-70
2023/02/12 05:30:14;;;;;;;2.53;1.53;;;1.20;99.90;;;;;;4969368;28;20190;-70
2023/02/12 05:32:40;;;;;;;5.37;1.93;;;1.10;99.90;;;;;;4938287;29;20190;-67
2023/02/12 05:35:07;;;;;;;3.43;1.50;;;1.20;99.90;;;;;;4975613;28;20200;-70
2023/02/12 05:37:35;;;;;;;3.30;1.90;;;1.30;99.90;;;;;;4943463;29;20236;-66
2023/02/12 05:40:04;;;;;;;4.60;1.70;;;1.20;99.90;;;;;;4943417;29;20205;-65
2023/02/12 05:42:31;;;;;;;2.47;1.47;;;1.30;99.90;;;;;;4975496;28;20201;-65
2023/02/12 05:44:58;;;;;;;2.13;1.40;;;1.30;99.90;;;;;;4943356;29;20282;-69
2023/02/12 05:47:25;;;;;;;1.90;1.30;;;1.30;99.90;;;;;;4974934;28;20202;-68
2023/02/12 05:49:51;;;;;;;4.67;1.57;;;1.30;99.90;;;;;;4959251;29;20686;-68
2023/02/12 05:52:18;;;;;;;2.77;1.70;;;1.30;99.90;;;;;;4975381;28;20216;-66
2023/02/12 05:54:49;;;;;;;2.30;1.70;;;1.20;99.90;;;;;;4943160;29;20190;-65
2023/02/12 05:57:16;;;;;;;2.93;1.50;;;1.30;99.90;;;;;;4960498;28;20197;-68
2023/02/12 05:59:42;;;;;;;2.23;1.63;;;1.30;99.90;;;;;;4943407;29;20201;-69
2023/02/12 06:02:09;;;;;;;2.77;1.53;;;1.30;99.90;;;;;;4943076;29;20649;-67
2023/02/12 06:04:36;;;;;;;1.83;1.30;;;1.30;99.90;;;;;;4960609;29;20304;-67
2023/02/12 06:07:03;;;;;;;2.70;1.93;;;1.30;99.90;;;;;;4942944;29;20568;-68
2023/02/12 06:09:29;;;;;;;2.17;1.43;;;1.40;99.90;;;;;;4960461;28;20222;-69
2023/02/12 06:11:56;;;;;;;3.83;2.00;;;1.30;99.90;;;;;;4975105;28;20206;-68
2023/02/12 06:14:23;;;;;;;2.20;1.70;;;1.40;99.90;;;;;;4975168;28;20206;-67
2023/02/12 06:16:51;;;;;;;2.23;1.63;;;1.40;99.90;;;;;;4942776;29;20663;-67
2023/02/12 06:19:18;;;;;;;2.73;1.77;;;1.40;99.90;;;;;;4975012;28;20206;-68
2023/02/12 06:21:46;;;;;;;3.07;2.00;;;1.40;99.90;;;;;;4943013;29;20296;-66
2023/02/12 06:24:14;;;;;;;2.07;1.57;;;1.50;99.90;;;;;;4943018;29;20202;-70
2023/02/12 06:26:41;;;;;;;1.77;1.60;;;1.50;99.90;;;;;;4960107;29;20230;-70
2023/02/12 06:29:08;;;;;;;2.27;1.60;;;1.50;99.90;;;;;;4943065;29;20197;-66
2023/02/12 06:31:36;;;;;;;4.70;1.93;;;1.50;99.90;;;;;;4960127;29;20560;-66
2023/02/12 06:34:06;;;;;;;3.70;1.70;;;1.50;99.90;;;;;;4927354;28;20194;-68
2023/02/12 06:36:36;;;;;;;4.10;1.93;;;1.50;99.90;;;;;;4974967;28;20204;-69
2023/02/12 06:39:03;;;;;;;2.87;2.10;;;1.50;99.90;;;;;;4974973;28;20217;-67
2023/02/12 06:41:30;;;;;;;2.97;1.83;;;1.50;99.90;;;;;;4974860;28;20197;-67
2023/02/12 06:43:57;;;;;;;3.10;1.80;;;1.50;99.90;;;;;;4959212;28;20221;-67
2023/02/12 06:46:24;;;;;;;2.97;1.90;;;1.50;99.90;;;;;;4971098;28;20224;-67
2023/02/12 06:48:56;;;;;;;3.13;1.87;;;1.50;99.90;;;;;;4939361;29;20269;-68
2023/02/12 06:51:24;;;;;;;3.57;1.90;;;1.40;99.90;;;;;;4956966;29;20541;-69
2023/02/12 06:53:52;;;;;;;3.10;2.00;;;1.30;99.90;;;;;;4956868;29;20241;-68
2023/02/12 06:56:20;;;;;;;3.47;2.13;;;1.30;99.90;;;;;;4956659;29;20210;-68
2023/02/12 06:58:54;;;;;;;2.90;2.00;;;1.40;99.90;;;;;;4955686;29;20207;-68
2023/02/12 07:01:23;;;;;;;6.20;2.70;;;1.40;99.90;;;;;;4971423;28;20550;-70
2023/02/12 07:04:01;;;;;;;4.07;2.20;;;1.50;99.90;;;;;;4971742;28;20208;-68
2023/02/12 07:06:30;;;;;;;2.80;2.17;;;1.60;99.90;;;;;;4938995;29;20218;-68
2023/02/12 07:08:57;;;;;;;2.80;1.73;;;1.60;99.90;;;;;;4936217;29;20219;-70
2023/02/12 07:11:25;;;;;;;3.97;2.10;;;1.60;99.90;;;;;;4931246;29;20202;-64
2023/02/12 07:13:52;;;;;;;2.53;1.90;;;1.60;99.90;;;;;;4939240;29;20217;-69
2023/02/12 07:16:19;;;;;;;3.27;2.27;;;1.70;99.90;;;;;;4956756;28;20234;-67
2023/02/12 07:18:47;;;;;;;2.70;2.03;;;1.70;99.90;;;;;;4936916;29;20199;-66
2023/02/12 07:21:15;;;;;;;2.80;1.90;;;1.70;99.90;;;;;;4937285;29;20202;-71
2023/02/12 07:23:46;;;;;;;2.97;1.90;;;1.70;99.90;;;;;;4933858;29;20203;-69
2023/02/12 07:26:18;;;;;;;2.83;1.73;;;1.70;99.90;;;;;;4918244;29;20215;-66
2023/02/12 07:28:44;;;;;;;3.63;1.90;;;1.70;99.90;;;;;;4916926;29;20223;-71
2023/02/12 07:31:15;;;;;;;6.83;2.40;;;1.70;99.90;;;;;;4916745;29;20222;-65
2023/02/12 07:33:43;;;;;;;2.50;1.90;;;1.70;99.90;;;;;;4918062;29;20543;-64
2023/02/12 07:36:12;;;;;;;4.63;2.00;;;1.80;99.90;;;;;;4916783;29;20258;-71
2023/02/12 07:38:40;;;;;;;4.47;1.90;;;1.80;99.90;;;;;;4916698;29;20195;-67
2023/02/12 07:41:17;;;;;;;3.00;1.80;;;1.80;99.90;;;;;;4924062;29;20205;-68
2023/02/12 07:43:46;;;;;;;2.83;2.20;;;1.90;99.90;;;;;;4955874;29;20193;-70
2023/02/12 07:46:16;;;;;;;3.60;2.60;;;1.80;99.90;;;;;;4938614;29;20225;-70
2023/02/12 07:48:45;;;;;;;4.47;2.27;;;1.70;99.90;;;;;;4970552;28;20249;-70
2023/02/12 07:51:15;;;;;;;4.00;2.43;;;1.80;99.90;;;;;;4938725;29;20209;-69
2023/02/12 07:53:42;;;;;;;5.27;2.57;;;1.90;99.90;;;;;;4970560;28;20199;-71
2023/02/12 07:56:23;;;;;;;3.97;2.53;;;1.90;99.90;;;;;;4970266;28;20198;-71
2023/02/12 07:58:52;;;;;;;11.33;3.43;;;1.90;99.90;;;;;;4970844;28;20198;-71
2023/02/12 08:01:21;;;;;;;2.87;2.17;;;2.10;99.90;;;;;;4938731;29;20229;-70
2023/02/12 08:03:50;;;;;;;3.63;2.00;;;2.10;99.90;;;;;;4938718;29;20206;-69
2023/02/12 08:06:20;;;;;;;2.00;1.80;;;2.20;99.90;;;;;;4938548;29;20317;-71
2023/02/12 08:08:47;;;;;;;3.00;1.87;;;2.30;99.90;;;;;;4955239;29;20215;-70
2023/02/12 08:11:14;;;;;;;2.27;1.90;;;2.90;99.90;;;;;;4970191;28;20211;-71
2023/02/12 08:13:41;;;;;;;2.17;1.77;;;3.60;99.90;;;;;;4927697;29;20202;-70
2023/02/12 08:16:11;;;;;;;3.57;2.40;;;4.00;99.90;;;;;;4919311;29;20225;-72
2023/02/12 08:18:38;;;;;;;3.47;2.03;;;4.20;99.90;;;;;;4919080;29;20195;-70
2023/02/12 08:21:11;;;;;;;4.33;2.30;;;4.40;99.90;;;;;;4934874;29;20236;-70
2023/02/12 08:23:39;;;;;;;3.90;2.03;;;4.90;99.90;;;;;;4918979;29;20210;-69
2023/02/12 08:26:14;;;;;;;3.57;2.23;;;5.10;99.90;;;;;;4935671;29;20215;-70
2023/02/12 08:28:48;;;;;;;4.13;2.40;;;5.30;99.90;;;;;;4950887;29;20187;-70
2023/02/12 08:31:18;;;;;;;2.90;2.17;;;4.20;99.90;;;;;;4919273;29;20535;-71
2023/02/12 08:33:47;;;;;;;3.87;2.07;;;4.70;99.90;;;;;;4935944;29;20226;-71
2023/02/12 08:36:17;;;;;;;2.53;1.90;;;4.80;99.90;;;;;;4918905;29;20191;-70
2023/02/12 08:38:44;;;;;;;3.37;2.07;;;4.90;99.90;;;;;;4934745;29;20204;-70
2023/02/12 08:41:14;;;;;;;3.80;2.20;;;5.10;99.90;;;;;;4935886;29;20529;-70
2023/02/12 08:43:41;;;;;;;8.60;2.63;;;5.30;99.90;;;;;;4934550;29;20211;-70
2023/02/12 08:46:14;;;;;;;3.60;2.27;;;5.60;99.90;;;;;;4935568;29;20215;-70
2023/02/12 08:48:42;;;;;;;3.80;2.43;;;5.80;99.90;;;;;;4918027;29;20233;-70
2023/02/12 08:51:14;;;;;;;3.30;1.93;;;5.80;99.90;;;;;;4918529;29;20198;-69
2023/02/12 08:53:44;;;;;;;4.23;2.30;;;5.90;99.90;;;;;;4950185;29;20217;-70
2023/02/12 08:56:13;;;;;;;9.80;2.60;;;6.10;99.90;;;;;;4935342;29;20212;-70
2023/02/12 08:58:40;;;;;;;5.53;2.30;;;6.20;99.90;;;;;;4950694;29;20213;-69
2023/02/12 09:01:14;;;;;;;6.70;2.60;;;6.30;99.90;;;;;;4918377;29;20214;-69
2023/02/12 09:03:44;;;;;;;7.27;2.20;;;6.40;99.90;;;;;;4917825;29;20194;-68
2023/02/12 09:06:11;;;;;;;3.47;2.00;;;6.50;99.90;;;;;;4943562;29;20234;-69
2023/02/12 09:08:39;;;;;;;4.50;2.00;;;6.00;99.90;;;;;;4949383;28;20225;-70
2023/02/12 09:11:11;;;;;;;3.83;2.40;;;5.80;99.90;;;;;;4935439;29;20195;-70
2023/02/12 09:13:39;;;;;;;3.73;2.30;;;6.10;99.90;;;;;;4950190;29;20216;-71
2023/02/12 09:16:06;;;;;;;2.87;2.07;;;6.10;99.90;;;;;;4933756;29;20206;-70
2023/02/12 09:18:34;;;;;;;4.27;2.23;;;6.60;99.90;;;;;;4949969;29;20222;-72
2023/02/12 09:21:06;;;;;;;4.20;2.37;;;6.70;99.90;;;;;;4950113;29;20195;-69
2023/02/12 09:23:34;;;;;;;3.27;2.40;;;6.20;99.90;;;;;;4934339;29;20194;-69
2023/02/12 09:26:06;;;;;;;3.90;2.40;;;5.50;99.90;;;;;;4949508;29;20258;-72
2023/02/12 09:28:34;;;;;;;4.10;2.63;;;5.20;99.90;;;;;;4949459;29;20210;-70
2023/02/12 09:31:06;;;;;;;3.70;2.57;;;5.70;99.90;;;;;;4949813;29;20288;-71
2023/02/12 09:33:33;;;;;;;3.93;2.70;;;6.00;99.90;;;;;;4934854;29;20190;-72
2023/02/12 09:36:02;;;;;;;3.63;2.73;;;6.20;99.90;;;;;;4935101;29;20198;-71
2023/02/12 09:38:29;;;;;;;4.13;2.60;;;6.50;99.90;;;;;;4934946;29;20209;-71
2023/02/12 09:41:23;;;;;;;3.90;2.50;;;7.10;99.90;;;;;;4917866;29;20206;-72
2023/02/12 09:43:55;;;;;;;3.50;2.80;;;7.50;99.90;;;;;;4917858;29;20203;-73
2023/02/12 09:46:34;;;;;;;3.13;2.53;;;7.90;99.90;;;;;;4917743;29;20683;-71
2023/02/12 09:49:20;;;;;;;5.60;2.90;;;7.70;99.90;;;;;;4917838;29;20235;-69
2023/02/12 09:51:52;;;;;;;7.73;4.20;;;7.80;99.90;;;;;;4935017;29;20952;-68
2023/02/12 09:54:27;;;;;;;11.43;3.73;;;7.30;99.90;;;;;;4935187;29;20550;-69
2023/02/12 09:56:57;;;;;;;4.60;2.50;;;7.30;99.90;;;;;;4935007;29;20229;-72
2023/02/12 09:59:55;;;;;;;4.43;3.00;;;7.70;99.90;;;;;;4934934;29;20273;-71
2023/02/12 10:02:23;;;;;;;4.87;2.50;;;7.70;99.90;;;;;;4932687;29;20640;-71
2023/02/12 10:04:52;;;;;;;4.23;2.63;;;7.80;99.90;;;;;;4917822;29;20212;-71
2023/02/12 10:08:05;;;;;;;3.17;2.43;;;8.50;99.90;;;;;;4917727;29;20237;-69
2023/02/12 10:10:52;;;;;;;4.50;2.40;;;8.30;99.90;;;;;;4949556;29;20209;-71
2023/02/12 10:13:52;;;;;;;4.00;2.33;;;8.70;99.90;;;;;;4917733;29;20301;-68
2023/02/12 10:16:41;;;;;;;3.57;2.43;;;8.40;99.90;;;;;;4917689;29;20214;-72
2023/02/12 10:19:45;;;;;;;4.40;2.30;;;8.50;99.90;;;;;;4934412;29;20210;-70
2023/02/12 10:22:29;;;;;;;3.83;2.67;;;8.40;99.90;;;;;;4921181;29;20563;-70
2023/02/12 10:25:24;;;;;;;3.47;2.70;;;8.00;99.90;;;;;;4921050;29;20253;-70
2023/02/12 10:27:55;;;;;;;4.07;2.60;;;8.00;99.90;;;;;;4953122;29;20227;-66
2023/02/12 10:30:34;;;;;;;4.23;2.50;;;7.80;99.90;;;;;;4938392;29;20209;-68
2023/02/12 10:33:11;;;;;;;4.27;2.83;;;8.20;99.90;;;;;;4952974;29;20191;-70
2023/02/12 10:35:43;;;;;;;4.73;2.70;;;8.30;99.90;;;;;;4952660;29;20656;-67
2023/02/12 10:38:18;;;;;;;2.93;2.40;;;8.80;99.90;;;;;;4920921;29;21105;-68
2023/02/12 10:40:49;;;;;;;3.23;2.10;;;8.60;99.90;;;;;;4937749;29;20293;-70
2023/02/12 10:43:16;;;;;;;4.00;2.40;;;8.90;99.90;;;;;;4937904;29;20218;-70
2023/02/12 10:45:43;;;;;;;5.23;2.80;;;9.20;99.90;;;;;;4936363;29;20198;-70
2023/02/12 10:48:15;;;;;;;3.27;2.70;;;9.10;99.90;;;;;;4937449;29;20234;-71
2023/02/12 10:51:08;;;;;;;4.83;2.50;;;8.70;99.90;;;;;;4936646;29;20213;-71
2023/02/12 10:53:42;;;;;;;4.77;2.80;;;7.90;99.90;;;;;;4922662;29;20554;-66
2023/02/12 10:56:12;;;;;;;4.17;2.70;;;7.90;99.90;;;;;;4952562;29;20203;-68
2023/02/12 10:58:49;;;;;;;5.03;2.87;;;7.90;99.90;;;;;;4952305;29;20238;-69
2023/02/12 11:01:46;;;;;;;4.57;2.90;;;8.20;99.90;;;;;;4937268;29;20191;-74
2023/02/12 11:04:32;;;;;;;5.50;2.90;;;8.40;99.90;;;;;;4916301;29;20211;-69
2023/02/12 11:07:05;;;;;;;3.83;2.80;;;8.90;99.90;;;;;;4900732;29;20234;-72
2023/02/12 11:09:44;;;;;;;4.13;2.80;;;8.80;99.90;;;;;;4916117;29;20222;-69
2023/02/12 11:12:25;;;;;;;5.77;3.07;;;8.80;99.90;;;;;;4916006;29;20203;-72
2023/02/12 11:14:54;;;;;;;5.50;3.10;;;8.20;99.90;;;;;;4900469;29;20215;-69
2023/02/12 11:17:38;;;;;;;5.40;3.30;;;8.70;99.90;;;;;;4897146;29;20211;-72
2023/02/12 11:20:17;;;;;;;4.73;3.30;;;9.10;99.90;;;;;;4881192;29;20678;-70
2023/02/12 11:22:59;;;;;;;6.57;3.50;;;9.00;99.90;;;;;;4897093;29;20200;-69
2023/02/12 11:25:30;;;;;;;5.57;3.60;;;9.00;99.90;;;;;;4896820;29;20200;-69
2023/02/12 11:28:03;;;;;;;5.47;3.50;;;8.80;99.90;;;;;;4912578;29;20288;-69
2023/02/12 11:30:30;;;;;;;6.53;3.60;;;8.90;99.90;;;;;;4896209;29;20208;-69
2023/02/12 11:33:28;;;;;;;6.97;3.77;;;8.80;99.90;;;;;;4894660;29;20588;-71
2023/02/12 11:36:02;;;;;;;5.50;3.60;;;9.10;99.90;;;;;;4908230;29;20212;-70
2023/02/12 11:38:46;;;;;;;6.73;3.57;;;9.90;99.90;;;;;;4894802;29;20229;-71
2023/02/12 11:41:22;;;;;;;5.73;3.50;;;9.80;99.90;;;;;;4911838;29;20300;-70
2023/02/12 11:43:49;;;;;;;5.27;3.50;;;9.70;99.90;;;;;;4945355;28;20198;-69
2023/02/12 11:46:21;;;;;;;5.53;3.87;;;9.30;99.90;;;;;;4936446;29;20214;-69
2023/02/12 11:48:49;;;;;;;6.30;4.17;;;8.70;99.90;;;;;;4914276;29;20635;-70
2023/02/12 11:51:25;;;;;;;6.20;4.10;;;8.40;99.90;;;;;;4928480;29;20540;-69
2023/02/12 11:53:56;;;;;;;6.67;3.90;;;8.30;99.90;;;;;;4949149;29;20299;-69
2023/02/12 11:56:22;;;;;;;7.13;4.20;;;8.70;99.90;;;;;;4919551;29;20206;-69
2023/02/12 11:58:50;;;;;;;6.20;3.97;;;9.20;99.90;;;;;;4948015;29;20195;-66
2023/02/12 12:01:37;;;;;;;6.60;3.93;;;9.30;99.90;;;;;;4932629;29;20196;-65
2023/02/12 12:04:15;;;;;;;9.87;4.20;;;9.60;99.90;;;;;;4913952;29;20192;-66
2023/02/12 12:07:04;;;;;;;5.43;4.00;;;9.10;99.90;;;;;;4934222;29;20194;-67
2023/02/12 12:09:51;;;;;;;5.70;4.00;;;9.60;99.90;;;;;;4917878;29;20688;-66
2023/02/12 12:12:42;;;;;;;5.83;4.00;;;10.20;99.90;;;;;;4910252;29;20202;-69
2023/02/12 12:21:59;;;;;;;6.87;4.17;;;11.00;99.40;;;;;;4900254;29;20208;-69
2023/02/12 12:24:52;;;;;;;11.33;4.17;;;11.60;98.80;;;;;;4862541;29;20316;-70
2023/02/12 12:28:05;;;;;;;8.37;3.63;;;11.90;96.50;;;;;;4873874;29;20372;-67
2023/02/12 12:30:32;;;;;;;6.50;3.80;;;11.70;94.30;;;;;;4861471;29;20252;-73
2023/02/12 12:33:02;;;;;;;5.50;3.70;;;11.40;95.90;;;;;;4859514;29;20635;-76
2023/02/12 12:35:44;;;;;;;6.20;3.90;;;10.80;95.60;;;;;;4877078;29;20205;-75
2023/02/12 12:38:52;;;;;;;6.20;3.60;;;9.30;99.90;;;;;;4882020;29;20208;-75
2023/02/12 12:41:32;;;;;;;5.67;3.50;;;8.30;99.90;;;;;;4861213;29;20204;-78
2023/02/12 12:44:11;;;;;;;7.57;3.83;;;8.60;99.90;;;;;;4874552;29;20212;-77
2023/02/12 12:46:55;;;;;;;6.43;3.90;;;8.30;99.90;;;;;;4891122;29;20208;-75
2023/02/12 12:49:54;;;;;;;7.17;3.63;;;8.60;99.90;;;;;;4890732;29;20705;-74
2023/02/12 12:52:39;;;;;;;6.03;3.27;;;8.60;99.90;;;;;;4857997;29;20249;-76
2023/02/12 12:55:43;;;;;;;6.53;3.50;;;8.70;99.90;;;;;;4874183;29;20205;-68
2023/02/12 12:58:38;;;;;;;6.37;3.30;;;8.20;99.90;;;;;;4860325;29;20209;-76
2023/02/12 13:01:42;;;;;;;6.40;3.67;;;8.50;99.90;;;;;;4913891;28;20207;-70
2023/02/12 13:04:27;;;;;;;6.60;3.63;;;9.00;99.90;;;;;;4917978;29;20272;-79
2023/02/12 13:07:09;;;;;;;6.40;3.50;;;9.40;99.90;;;;;;4918460;29;20210;-84
2023/02/12 13:09:45;;;;;;;6.43;3.77;;;9.20;99.90;;;;;;4950537;29;20219;-76
2023/02/12 13:12:12;;;;;;;5.80;3.80;;;8.80;99.90;;;;;;4934866;29;20283;-79
2023/02/12 13:15:17;;;;;;;7.13;3.90;;;9.30;99.90;;;;;;4925471;29;20199;-80
2023/02/12 13:17:54;;;;;;;8.02;4.50;;;9.80;99.90;;;;;;4948894;29;20560;-78
2023/02/12 13:20:25;;;;;;;8.33;4.37;;;10.00;99.90;;;;;;4919031;29;20206;-76
2023/02/12 13:23:00;;;;;;;8.37;4.23;;;9.80;99.90;;;;;;4916480;29;20211;-74
2023/02/12 13:25:48;;;;;;;7.30;4.13;;;9.90;99.90;;;;;;4918692;29;20213;-78
2023/02/12 13:28:24;;;;;;;7.37;4.10;;;9.70;99.90;;;;;;4948070;28;20718;-82
2023/02/12 13:30:54;;;;;;;6.23;3.87;;;8.50;99.90;;;;;;4935413;29;20226;-80
2023/02/12 13:33:26;;;;;;;7.30;3.70;;;8.20;99.90;;;;;;4915825;29;20246;-81
2023/02/12 13:35:59;;;;;;;6.10;3.90;;;8.40;99.90;;;;;;4932867;29;20218;-75
2023/02/12 13:38:32;;;;;;;6.20;3.67;;;8.60;99.90;;;;;;4935481;29;20205;-80
2023/02/12 13:41:05;;;;;;;6.27;3.60;;;8.30;99.90;;;;;;4949987;29;20202;-75
2023/02/12 13:43:45;;;;;;;7.00;3.80;;;7.80;99.90;;;;;;4935182;29;20195;-67
2023/02/12 13:46:40;;;;;;;6.97;3.77;;;7.70;99.90;;;;;;4934147;29;20198;-84